ENGM Airport Information

Runway Information
Runway 01L Length 11811 ft width 148 ft
Elevation 656 ft Threshold 0 ft Heading 16
Runway 19R Length 11811 ft Width 148 ft
Elevation 675 ft Threshold 0 ft Heading 196
Runway 01R Length 9678 ft width 148 ft
Elevation 670 ft Threshold 0 ft Heading 16
Runway 19L Length 9678 ft Width 148 ft
Elevation 681 ft Threshold 0 ft Heading 196
Airport Frequencies
Type APP Name APP Frequency 119.975 MHZ
Type ATIS Name ATIS Frequency 126.125 MHZ
Type CLD Name CLNC DEL Frequency 121.6 MHZ
Type DIR Name DIRECTOR Frequency 131.35 MHZ
Type GND Name GND Frequency 121.925 MHZ
Type MISC Name DE ICING Frequency 131.975 MHZ
Type OPS Name WINGOPS Frequency 29.38 MHZ
Type PMSV Name PMSV METRO Frequency 134.175 MHZ
Type TWR Name TWR Frequency 118.3 MHZ
Airport Navaids
Type NDB Name Bergerud Frequency 316 KHZ
Type VOR-DME Name Gardermoen Frequency 115950 KHZ
Type NDB Name Oppaker Frequency 334 KHZ
Type NDB Name Solberg Frequency 414 KHZ
Type NDB Name Soknen Frequency 387 KHZ
Airport Weather Information & NOTAM
ADDS - METARS form results

(0635 UTC 18 September 2021)
Data provider http://aviationweather.gov/metar/data/
 
METAR text: ENGM 180620Z VRB02KT 9999 BKN046 07/05 Q1024 NOSIG
Conditions at: ENGM (OSLO/GARDERMOEN , NO) observed 0620 UTC 18 September 2021
Temperature: 7.0°C (45°F)
Dewpoint: 5.0°C (41°F) [RH = 87%]
Pressure (altimeter): 30.24 inches Hg (1024.0 mb)
Winds: variable direction winds at 2 MPH (2 knots; 1.0 m/s)
Visibility: 6 or more miles (10+ km)
Ceiling: 4600 feet AGL
Clouds: broken clouds at 4600 feet AGL
Weather: no significant weather observed at this time

METAR text: ENGM 180550Z 35003KT 310V060 9999 BKN046 07/05 Q1024 NOSIG
Conditions at: ENGM (OSLO/GARDERMOEN , NO) observed 0550 UTC 18 September 2021
Temperature: 7.0°C (45°F)
Dewpoint: 5.0°C (41°F) [RH = 87%]
Pressure (altimeter): 30.24 inches Hg (1024.0 mb)
Winds: from the N (350 degrees) at 3 MPH (3 knots; 1.5 m/s)
Visibility: 6 or more miles (10+ km)
Ceiling: 4600 feet AGL
Clouds: broken clouds at 4600 feet AGL
Weather: no significant weather observed at this time

Forecast for: ENGM (OSLO/GARDERMOEN , NO)
Text: TAF ENGM 1806/1906 05005KT 9999 BKN040
Forecast period: 0600 to 1000 UTC 18 September 2021
Forecast type: FROM: standard forecast or significant change
Winds: from the NE (50 degrees) at 6 MPH (5 knots; 2.6 m/s)
Visibility: 6 or more miles (10+ km)
Ceiling: 4000 feet AGL
Clouds: broken clouds at 4000 feet AGL
Weather: no significant weather forecast for this period
Text: BECMG 1810/1812 17010KT
Forecast period: 1000 UTC 18 September 2021 to 0600 UTC 19 September 2021
Forecast type: BECOMING: Conditions expected to become as follows by 1200 UTC 18 September 2021
Winds: from the S (170 degrees) at 12 MPH (10 knots; 5.1 m/s)
Visibility: 6 or more miles (10+ km)
Ceiling: 4000 feet AGL
Clouds: broken clouds at 4000 feet AGL
Weather: no significant weather forecast for this period